Mataro, Spain
Current Conditions -  °F | °C
As of 7:00 PM on Tuesday 21 Oct 2014 (Local Time) from LELL Reporting Station
Clear Clear  
Wind Chill: 72°   Ceiling: Unl
Heat Index: 72°   Visibility: 6mi
Dew Point: 63°   Wind: 1mph
Humidity: 73%   Direction: NA
Pressure: 30.06"   Gusts: NA
Location:  41.54°N, 2.45°E
Report Text: LELL 211700Z VRB01KT CAVOK 22/17 Q1018
Loading
Personal Weather Stations






























Interactive Weather Map
Tropical Storm Tracking
New forecast layout! Learn more

10-Day Weather Forecast

Advertisements
Track Severe Weather on mobile